sensor_id;sensor_type;location;lat;lon;timestamp;P1;durP1;ratioP1;P2;durP2;ratioP2
36241;SDS011;22283;42.748;12.732;2023-02-28T00:00:32;5.60;;;3.78;;
36241;SDS011;22283;42.748;12.732;2023-02-28T00:05:33;7.63;;;3.38;;
36241;SDS011;22283;42.748;12.732;2023-02-28T00:10:34;7.07;;;4.30;;
36241;SDS011;22283;42.748;12.732;2023-02-28T00:15:34;6.43;;;3.80;;
36241;SDS011;22283;42.748;12.732;2023-02-28T00:20:35;7.73;;;3.30;;
36241;SDS011;22283;42.748;12.732;2023-02-28T00:25:36;5.07;;;3.20;;
36241;SDS011;22283;42.748;12.732;2023-02-28T00:30:36;5.40;;;3.40;;
36241;SDS011;22283;42.748;12.732;2023-02-28T00:35:38;9.10;;;3.15;;
36241;SDS011;22283;42.748;12.732;2023-02-28T00:40:39;5.10;;;2.97;;
36241;SDS011;22283;42.748;12.732;2023-02-28T00:45:40;7.87;;;3.07;;
36241;SDS011;22283;42.748;12.732;2023-02-28T00:50:40;5.67;;;3.47;;
36241;SDS011;22283;42.748;12.732;2023-02-28T00:55:41;9.17;;;3.83;;
36241;SDS011;22283;42.748;12.732;2023-02-28T01:00:41;4.70;;;3.33;;
36241;SDS011;22283;42.748;12.732;2023-02-28T01:05:42;6.57;;;4.00;;
36241;SDS011;22283;42.748;12.732;2023-02-28T01:10:43;5.37;;;3.40;;
36241;SDS011;22283;42.748;12.732;2023-02-28T01:15:46;5.60;;;3.63;;
36241;SDS011;22283;42.748;12.732;2023-02-28T01:20:50;4.88;;;3.25;;
36241;SDS011;22283;42.748;12.732;2023-02-28T01:30:53;4.22;;;3.22;;
36241;SDS011;22283;42.748;12.732;2023-02-28T01:35:57;6.83;;;3.53;;
36241;SDS011;22283;42.748;12.732;2023-02-28T01:40:59;6.72;;;3.67;;
36241;SDS011;22283;42.748;12.732;2023-02-28T01:46:00;5.93;;;3.22;;
36241;SDS011;22283;42.748;12.732;2023-02-28T01:51:03;7.77;;;3.50;;
36241;SDS011;22283;42.748;12.732;2023-02-28T01:56:10;6.95;;;4.32;;
36241;SDS011;22283;42.748;12.732;2023-02-28T02:01:22;7.25;;;3.65;;
36241;SDS011;22283;42.748;12.732;2023-02-28T02:06:45;6.90;;;3.10;;
36241;SDS011;22283;42.748;12.732;2023-02-28T02:11:47;10.57;;;5.63;;
36241;SDS011;22283;42.748;12.732;2023-02-28T02:39:30;6.68;;;3.85;;
36241;SDS011;22283;42.748;12.732;2023-02-28T02:44:41;4.15;;;2.38;;
36241;SDS011;22283;42.748;12.732;2023-02-28T02:49:54;6.30;;;2.70;;
36241;SDS011;22283;42.748;12.732;2023-02-28T02:54:58;7.82;;;3.05;;
36241;SDS011;22283;42.748;12.732;2023-02-28T03:00:03;5.25;;;2.80;;
36241;SDS011;22283;42.748;12.732;2023-02-28T03:05:12;3.75;;;2.03;;
36241;SDS011;22283;42.748;12.732;2023-02-28T03:15:30;4.32;;;2.53;;
36241;SDS011;22283;42.748;12.732;2023-02-28T03:20:51;3.67;;;2.30;;
36241;SDS011;22283;42.748;12.732;2023-02-28T03:26:27;4.18;;;2.60;;
36241;SDS011;22283;42.748;12.732;2023-02-28T03:31:38;4.68;;;2.53;;
36241;SDS011;22283;42.748;12.732;2023-02-28T03:36:44;5.25;;;2.97;;
36241;SDS011;22283;42.748;12.732;2023-02-28T03:52:34;4.43;;;2.57;;
36241;SDS011;22283;42.748;12.732;2023-02-28T04:02:44;4.80;;;2.50;;
36241;SDS011;22283;42.748;12.732;2023-02-28T04:07:45;4.80;;;2.80;;
36241;SDS011;22283;42.748;12.732;2023-02-28T04:12:45;5.13;;;2.67;;
36241;SDS011;22283;42.748;12.732;2023-02-28T04:17:46;4.77;;;2.70;;
36241;SDS011;22283;42.748;12.732;2023-02-28T04:22:47;4.15;;;2.55;;
36241;SDS011;22283;42.748;12.732;2023-02-28T04:27:48;4.07;;;2.17;;
36241;SDS011;22283;42.748;12.732;2023-02-28T04:32:49;4.50;;;2.10;;
36241;SDS011;22283;42.748;12.732;2023-02-28T04:37:49;5.27;;;2.53;;
36241;SDS011;22283;42.748;12.732;2023-02-28T04:42:50;4.17;;;2.33;;
36241;SDS011;22283;42.748;12.732;2023-02-28T04:47:51;4.10;;;2.00;;
36241;SDS011;22283;42.748;12.732;2023-02-28T04:52:52;5.73;;;1.83;;
36241;SDS011;22283;42.748;12.732;2023-02-28T04:57:53;4.63;;;2.03;;
36241;SDS011;22283;42.748;12.732;2023-02-28T05:02:53;3.53;;;2.13;;
36241;SDS011;22283;42.748;12.732;2023-02-28T05:07:54;4.43;;;2.67;;
36241;SDS011;22283;42.748;12.732;2023-02-28T05:12:55;4.28;;;2.22;;
36241;SDS011;22283;42.748;12.732;2023-02-28T05:17:56;3.47;;;2.00;;
36241;SDS011;22283;42.748;12.732;2023-02-28T05:22:57;5.27;;;3.27;;
36241;SDS011;22283;42.748;12.732;2023-02-28T05:27:59;7.03;;;3.83;;
36241;SDS011;22283;42.748;12.732;2023-02-28T05:33:00;7.73;;;2.77;;
36241;SDS011;22283;42.748;12.732;2023-02-28T05:38:01;4.03;;;2.20;;
36241;SDS011;22283;42.748;12.732;2023-02-28T05:43:02;5.50;;;2.75;;
36241;SDS011;22283;42.748;12.732;2023-02-28T05:48:02;5.37;;;2.57;;
36241;SDS011;22283;42.748;12.732;2023-02-28T05:53:03;3.53;;;1.90;;
36241;SDS011;22283;42.748;12.732;2023-02-28T05:58:04;3.40;;;2.10;;
36241;SDS011;22283;42.748;12.732;2023-02-28T06:03:04;2.93;;;1.73;;
36241;SDS011;22283;42.748;12.732;2023-02-28T06:08:05;4.87;;;2.27;;
36241;SDS011;22283;42.748;12.732;2023-02-28T06:13:08;3.90;;;2.05;;
36241;SDS011;22283;42.748;12.732;2023-02-28T06:18:09;3.83;;;1.97;;
36241;SDS011;22283;42.748;12.732;2023-02-28T06:23:10;3.13;;;1.83;;
36241;SDS011;22283;42.748;12.732;2023-02-28T06:28:10;3.97;;;1.83;;
36241;SDS011;22283;42.748;12.732;2023-02-28T06:33:11;3.43;;;2.10;;
36241;SDS011;22283;42.748;12.732;2023-02-28T06:38:11;4.00;;;2.57;;
36241;SDS011;22283;42.748;12.732;2023-02-28T06:43:12;5.67;;;3.40;;
36241;SDS011;22283;42.748;12.732;2023-02-28T06:48:13;4.87;;;3.20;;
36241;SDS011;22283;42.748;12.732;2023-02-28T06:53:14;5.97;;;3.27;;
36241;SDS011;22283;42.748;12.732;2023-02-28T06:58:14;4.27;;;2.43;;
36241;SDS011;22283;42.748;12.732;2023-02-28T07:03:15;4.27;;;2.67;;
36241;SDS011;22283;42.748;12.732;2023-02-28T07:08:16;12.57;;;5.43;;
36241;SDS011;22283;42.748;12.732;2023-02-28T07:13:17;6.33;;;4.53;;
36241;SDS011;22283;42.748;12.732;2023-02-28T07:18:17;9.57;;;5.40;;
36241;SDS011;22283;42.748;12.732;2023-02-28T07:28:20;6.22;;;3.00;;
36241;SDS011;22283;42.748;12.732;2023-02-28T07:33:20;5.50;;;2.90;;
36241;SDS011;22283;42.748;12.732;2023-02-28T07:38:21;7.57;;;4.10;;
36241;SDS011;22283;42.748;12.732;2023-02-28T07:43:22;7.43;;;3.20;;
36241;SDS011;22283;42.748;12.732;2023-02-28T07:48:22;7.80;;;2.83;;
36241;SDS011;22283;42.748;12.732;2023-02-28T07:53:23;11.33;;;4.50;;
36241;SDS011;22283;42.748;12.732;2023-02-28T07:58:24;12.47;;;3.43;;
36241;SDS011;22283;42.748;12.732;2023-02-28T08:03:25;4.70;;;2.63;;
36241;SDS011;22283;42.748;12.732;2023-02-28T08:08:25;8.50;;;2.47;;
36241;SDS011;22283;42.748;12.732;2023-02-28T08:13:31;3.95;;;2.35;;
36241;SDS011;22283;42.748;12.732;2023-02-28T08:18:32;11.87;;;2.70;;
36241;SDS011;22283;42.748;12.732;2023-02-28T08:23:33;4.00;;;2.90;;
36241;SDS011;22283;42.748;12.732;2023-02-28T08:28:33;6.23;;;3.40;;
36241;SDS011;22283;42.748;12.732;2023-02-28T08:33:34;6.93;;;3.27;;
36241;SDS011;22283;42.748;12.732;2023-02-28T08:38:35;9.40;;;3.73;;
36241;SDS011;22283;42.748;12.732;2023-02-28T08:43:36;14.27;;;5.43;;
36241;SDS011;22283;42.748;12.732;2023-02-28T08:48:38;9.23;;;4.25;;
36241;SDS011;22283;42.748;12.732;2023-02-28T08:53:39;8.30;;;4.23;;
36241;SDS011;22283;42.748;12.732;2023-02-28T09:03:41;8.13;;;5.00;;
36241;SDS011;22283;42.748;12.732;2023-02-28T09:08:42;7.25;;;5.53;;
36241;SDS011;22283;42.748;12.732;2023-02-28T09:13:44;18.83;;;5.55;;
36241;SDS011;22283;42.748;12.732;2023-02-28T09:23:47;15.85;;;4.97;;
36241;SDS011;22283;42.748;12.732;2023-02-28T09:28:49;8.80;;;4.63;;
36241;SDS011;22283;42.748;12.732;2023-02-28T09:33:51;10.23;;;5.93;;
36241;SDS011;22283;42.748;12.732;2023-02-28T09:38:53;12.45;;;7.00;;
36241;SDS011;22283;42.748;12.732;2023-02-28T09:43:58;8.97;;;3.70;;
36241;SDS011;22283;42.748;12.732;2023-02-28T09:49:07;3.83;;;2.70;;
36241;SDS011;22283;42.748;12.732;2023-02-28T09:54:23;5.82;;;2.13;;
36241;SDS011;22283;42.748;12.732;2023-02-28T09:59:29;3.15;;;1.10;;
36241;SDS011;22283;42.748;12.732;2023-02-28T10:09:38;5.95;;;1.23;;
36241;SDS011;22283;42.748;12.732;2023-02-28T10:14:38;4.50;;;0.93;;
36241;SDS011;22283;42.748;12.732;2023-02-28T10:19:56;5.28;;;0.93;;
36241;SDS011;22283;42.748;12.732;2023-02-28T10:25:27;3.83;;;0.80;;
36241;SDS011;22283;42.748;12.732;2023-02-28T10:30:29;12.00;;;3.00;;
36241;SDS011;22283;42.748;12.732;2023-02-28T10:35:29;3.37;;;1.47;;
36241;SDS011;22283;42.748;12.732;2023-02-28T10:40:32;4.83;;;1.40;;
36241;SDS011;22283;42.748;12.732;2023-02-28T10:45:35;2.25;;;0.90;;
36241;SDS011;22283;42.748;12.732;2023-02-28T10:56:14;2.90;;;1.58;;
36241;SDS011;22283;42.748;12.732;2023-02-28T11:01:26;2.03;;;0.90;;
36241;SDS011;22283;42.748;12.732;2023-02-28T11:06:41;2.63;;;0.88;;
36241;SDS011;22283;42.748;12.732;2023-02-28T11:11:45;2.30;;;1.30;;
36241;SDS011;22283;42.748;12.732;2023-02-28T11:16:47;4.28;;;2.28;;
36241;SDS011;22283;42.748;12.732;2023-02-28T11:21:57;6.10;;;3.22;;
36241;SDS011;22283;42.748;12.732;2023-02-28T11:27:00;3.95;;;1.48;;
36241;SDS011;22283;42.748;12.732;2023-02-28T11:37:08;2.80;;;1.00;;
36241;SDS011;22283;42.748;12.732;2023-02-28T11:48:10;4.50;;;1.30;;
36241;SDS011;22283;42.748;12.732;2023-02-28T11:53:22;4.03;;;1.05;;
36241;SDS011;22283;42.748;12.732;2023-02-28T12:20:05;7.10;;;1.52;;
36241;SDS011;22283;42.748;12.732;2023-02-28T12:30:48;2.83;;;1.30;;
36241;SDS011;22283;42.748;12.732;2023-02-28T12:35:57;4.30;;;1.10;;
36241;SDS011;22283;42.748;12.732;2023-02-28T12:41:00;2.28;;;1.48;;
36241;SDS011;22283;42.748;12.732;2023-02-28T12:46:11;6.05;;;2.10;;
36241;SDS011;22283;42.748;12.732;2023-02-28T12:51:18;3.95;;;1.85;;
36241;SDS011;22283;42.748;12.732;2023-02-28T13:12:19;3.95;;;1.10;;
36241;SDS011;22283;42.748;12.732;2023-02-28T13:27:32;5.13;;;2.03;;
36241;SDS011;22283;42.748;12.732;2023-02-28T13:32:39;2.38;;;1.10;;
36241;SDS011;22283;42.748;12.732;2023-02-28T13:37:44;2.00;;;1.20;;
36241;SDS011;22283;42.748;12.732;2023-02-28T13:42:50;9.77;;;3.40;;
36241;SDS011;22283;42.748;12.732;2023-02-28T14:19:37;6.30;;;1.90;;
36241;SDS011;22283;42.748;12.732;2023-02-28T14:29:59;5.00;;;1.83;;
36241;SDS011;22283;42.748;12.732;2023-02-28T14:40:40;4.60;;;1.20;;
36241;SDS011;22283;42.748;12.732;2023-02-28T14:45:41;3.67;;;1.40;;
36241;SDS011;22283;42.748;12.732;2023-02-28T14:50:42;4.00;;;1.73;;
36241;SDS011;22283;42.748;12.732;2023-02-28T14:55:50;6.43;;;2.40;;
36241;SDS011;22283;42.748;12.732;2023-02-28T15:00:54;6.65;;;1.58;;
36241;SDS011;22283;42.748;12.732;2023-02-28T15:05:57;3.20;;;1.90;;
36241;SDS011;22283;42.748;12.732;2023-02-28T15:11:13;29.25;;;1.85;;
36241;SDS011;22283;42.748;12.732;2023-02-28T15:16:19;3.70;;;2.05;;
36241;SDS011;22283;42.748;12.732;2023-02-28T15:21:25;2.83;;;1.52;;
36241;SDS011;22283;42.748;12.732;2023-02-28T15:26:30;3.35;;;1.90;;
36241;SDS011;22283;42.748;12.732;2023-02-28T15:31:35;4.05;;;1.80;;
36241;SDS011;22283;42.748;12.732;2023-02-28T15:36:41;4.55;;;2.53;;
36241;SDS011;22283;42.748;12.732;2023-02-28T15:41:42;3.30;;;2.07;;
36241;SDS011;22283;42.748;12.732;2023-02-28T15:46:43;5.03;;;2.80;;
36241;SDS011;22283;42.748;12.732;2023-02-28T15:51:55;6.30;;;2.00;;
36241;SDS011;22283;42.748;12.732;2023-02-28T15:57:01;3.83;;;1.80;;
36241;SDS011;22283;42.748;12.732;2023-02-28T16:02:13;4.18;;;2.10;;
36241;SDS011;22283;42.748;12.732;2023-02-28T16:07:19;4.53;;;2.30;;
36241;SDS011;22283;42.748;12.732;2023-02-28T16:12:20;3.93;;;1.93;;
36241;SDS011;22283;42.748;12.732;2023-02-28T16:17:29;3.10;;;1.80;;
36241;SDS011;22283;42.748;12.732;2023-02-28T16:22:34;5.40;;;2.90;;
36241;SDS011;22283;42.748;12.732;2023-02-28T16:27:35;6.13;;;1.97;;
36241;SDS011;22283;42.748;12.732;2023-02-28T16:32:37;3.60;;;2.30;;
36241;SDS011;22283;42.748;12.732;2023-02-28T16:37:40;4.35;;;2.50;;
36241;SDS011;22283;42.748;12.732;2023-02-28T16:42:41;5.65;;;3.15;;
36241;SDS011;22283;42.748;12.732;2023-02-28T16:47:42;8.68;;;4.00;;
36241;SDS011;22283;42.748;12.732;2023-02-28T16:52:43;6.63;;;2.23;;
36241;SDS011;22283;42.748;12.732;2023-02-28T16:57:44;4.70;;;2.80;;
36241;SDS011;22283;42.748;12.732;2023-02-28T17:02:52;6.10;;;4.45;;
36241;SDS011;22283;42.748;12.732;2023-02-28T17:07:53;8.53;;;4.60;;
36241;SDS011;22283;42.748;12.732;2023-02-28T17:12:54;6.27;;;4.40;;
36241;SDS011;22283;42.748;12.732;2023-02-28T17:17:54;6.50;;;4.43;;
36241;SDS011;22283;42.748;12.732;2023-02-28T17:22:55;6.77;;;2.33;;
36241;SDS011;22283;42.748;12.732;2023-02-28T17:27:56;9.85;;;4.38;;
36241;SDS011;22283;42.748;12.732;2023-02-28T17:32:57;11.77;;;5.70;;
36241;SDS011;22283;42.748;12.732;2023-02-28T17:37:57;4.73;;;3.13;;
36241;SDS011;22283;42.748;12.732;2023-02-28T17:42:58;13.77;;;7.07;;
36241;SDS011;22283;42.748;12.732;2023-02-28T17:47:59;6.67;;;4.90;;
36241;SDS011;22283;42.748;12.732;2023-02-28T17:52:59;6.27;;;2.80;;
36241;SDS011;22283;42.748;12.732;2023-02-28T17:58:00;6.47;;;2.17;;
36241;SDS011;22283;42.748;12.732;2023-02-28T18:03:03;4.82;;;2.75;;
36241;SDS011;22283;42.748;12.732;2023-02-28T18:08:03;9.40;;;3.67;;
36241;SDS011;22283;42.748;12.732;2023-02-28T18:13:04;14.90;;;8.70;;
36241;SDS011;22283;42.748;12.732;2023-02-28T18:18:05;7.70;;;3.10;;
36241;SDS011;22283;42.748;12.732;2023-02-28T18:23:07;8.95;;;4.72;;
36241;SDS011;22283;42.748;12.732;2023-02-28T18:28:07;11.03;;;3.77;;
36241;SDS011;22283;42.748;12.732;2023-02-28T18:33:08;14.77;;;6.17;;
36241;SDS011;22283;42.748;12.732;2023-02-28T18:38:15;5.93;;;3.07;;
36241;SDS011;22283;42.748;12.732;2023-02-28T18:43:19;6.10;;;2.70;;
36241;SDS011;22283;42.748;12.732;2023-02-28T18:48:19;6.67;;;3.67;;
36241;SDS011;22283;42.748;12.732;2023-02-28T18:53:22;7.30;;;2.95;;
36241;SDS011;22283;42.748;12.732;2023-02-28T18:58:23;10.23;;;6.70;;
36241;SDS011;22283;42.748;12.732;2023-02-28T19:03:23;6.13;;;3.13;;
36241;SDS011;22283;42.748;12.732;2023-02-28T19:08:24;6.20;;;3.10;;
36241;SDS011;22283;42.748;12.732;2023-02-28T19:13:26;11.95;;;3.55;;
36241;SDS011;22283;42.748;12.732;2023-02-28T19:18:26;18.27;;;10.97;;
36241;SDS011;22283;42.748;12.732;2023-02-28T19:23:27;5.03;;;2.37;;
36241;SDS011;22283;42.748;12.732;2023-02-28T19:28:30;5.93;;;3.38;;
36241;SDS011;22283;42.748;12.732;2023-02-28T19:33:32;8.48;;;4.07;;
36241;SDS011;22283;42.748;12.732;2023-02-28T19:38:33;4.40;;;2.47;;
36241;SDS011;22283;42.748;12.732;2023-02-28T19:43:34;10.37;;;5.47;;
36241;SDS011;22283;42.748;12.732;2023-02-28T19:48:36;3.95;;;2.03;;
36241;SDS011;22283;42.748;12.732;2023-02-28T19:53:38;4.88;;;3.38;;
36241;SDS011;22283;42.748;12.732;2023-02-28T19:58:40;3.03;;;1.80;;
36241;SDS011;22283;42.748;12.732;2023-02-28T20:03:45;3.97;;;2.63;;
36241;SDS011;22283;42.748;12.732;2023-02-28T20:08:47;5.75;;;2.78;;
36241;SDS011;22283;42.748;12.732;2023-02-28T20:13:50;3.23;;;2.23;;
36241;SDS011;22283;42.748;12.732;2023-02-28T20:18:52;5.00;;;2.70;;
36241;SDS011;22283;42.748;12.732;2023-02-28T20:23:52;4.00;;;2.20;;
36241;SDS011;22283;42.748;12.732;2023-02-28T20:28:53;4.87;;;3.23;;
36241;SDS011;22283;42.748;12.732;2023-02-28T20:33:54;10.13;;;4.90;;
36241;SDS011;22283;42.748;12.732;2023-02-28T20:38:54;5.70;;;3.97;;
36241;SDS011;22283;42.748;12.732;2023-02-28T20:43:56;9.77;;;5.70;;
36241;SDS011;22283;42.748;12.732;2023-02-28T20:48:58;10.60;;;5.68;;
36241;SDS011;22283;42.748;12.732;2023-02-28T20:53:58;11.03;;;7.23;;
36241;SDS011;22283;42.748;12.732;2023-02-28T20:58:59;25.00;;;14.23;;
36241;SDS011;22283;42.748;12.732;2023-02-28T21:04:01;10.73;;;7.67;;
36241;SDS011;22283;42.748;12.732;2023-02-28T21:09:06;10.07;;;6.20;;
36241;SDS011;22283;42.748;12.732;2023-02-28T21:14:12;8.68;;;5.60;;
36241;SDS011;22283;42.748;12.732;2023-02-28T21:19:15;10.02;;;5.10;;
36241;SDS011;22283;42.748;12.732;2023-02-28T21:24:16;8.10;;;5.00;;
36241;SDS011;22283;42.748;12.732;2023-02-28T21:29:18;8.93;;;6.05;;
36241;SDS011;22283;42.748;12.732;2023-02-28T21:34:19;15.50;;;9.40;;
36241;SDS011;22283;42.748;12.732;2023-02-28T21:39:20;16.07;;;9.73;;
36241;SDS011;22283;42.748;12.732;2023-02-28T21:44:24;36.38;;;20.52;;
36241;SDS011;22283;42.748;12.732;2023-02-28T21:49:27;13.38;;;8.27;;
36241;SDS011;22283;42.748;12.732;2023-02-28T21:54:28;23.67;;;15.10;;
36241;SDS011;22283;42.748;12.732;2023-02-28T21:59:28;16.83;;;8.70;;
36241;SDS011;22283;42.748;12.732;2023-02-28T22:04:29;11.47;;;7.60;;
36241;SDS011;22283;42.748;12.732;2023-02-28T22:09:30;10.33;;;6.73;;
36241;SDS011;22283;42.748;12.732;2023-02-28T22:14:31;11.77;;;7.10;;
36241;SDS011;22283;42.748;12.732;2023-02-28T22:19:32;8.48;;;4.70;;
36241;SDS011;22283;42.748;12.732;2023-02-28T22:24:35;6.55;;;3.95;;
36241;SDS011;22283;42.748;12.732;2023-02-28T22:29:35;7.23;;;3.40;;
36241;SDS011;22283;42.748;12.732;2023-02-28T22:34:36;7.00;;;3.20;;
36241;SDS011;22283;42.748;12.732;2023-02-28T22:39:37;6.57;;;3.80;;
36241;SDS011;22283;42.748;12.732;2023-02-28T22:44:37;5.73;;;3.57;;
36241;SDS011;22283;42.748;12.732;2023-02-28T22:49:38;6.13;;;3.40;;
36241;SDS011;22283;42.748;12.732;2023-02-28T22:54:39;4.60;;;2.40;;
36241;SDS011;22283;42.748;12.732;2023-02-28T22:59:39;6.60;;;3.23;;
36241;SDS011;22283;42.748;12.732;2023-02-28T23:04:41;4.70;;;2.80;;
36241;SDS011;22283;42.748;12.732;2023-02-28T23:09:42;2.50;;;1.50;;
36241;SDS011;22283;42.748;12.732;2023-02-28T23:14:42;5.77;;;1.80;;
36241;SDS011;22283;42.748;12.732;2023-02-28T23:19:43;4.27;;;2.37;;
36241;SDS011;22283;42.748;12.732;2023-02-28T23:24:44;4.73;;;2.33;;
36241;SDS011;22283;42.748;12.732;2023-02-28T23:29:44;3.43;;;1.23;;
36241;SDS011;22283;42.748;12.732;2023-02-28T23:34:45;2.47;;;1.50;;
36241;SDS011;22283;42.748;12.732;2023-02-28T23:39:47;6.37;;;2.10;;
36241;SDS011;22283;42.748;12.732;2023-02-28T23:44:47;1.85;;;1.15;;
36241;SDS011;22283;42.748;12.732;2023-02-28T23:49:48;3.23;;;1.70;;
36241;SDS011;22283;42.748;12.732;2023-02-28T23:54:48;2.70;;;2.00;;
36241;SDS011;22283;42.748;12.732;2023-02-28T23:59:49;3.10;;;1.80;;
